Time;durP1;ratioP1;P1;durP2;ratioP2;P2;SDS_P1;SDS_P2;PMS_P1;PMS_P2;Temp;Humidity;BMP_temperature;BMP_pressure;BME280_temperature;BME280_humidity;BME280_pressure;Samples;Min_cycle;Max_cycle;Signal;HPM_P1;HPM_P2
2023/08/31 00:00:40;;;;;;;;;;;21.50;66.10;;;;;;5073388;28;20347;-55
2023/08/31 00:03:06;;;;;;;;;;;21.60;65.40;;;;;;5083471;28;19912;-55
2023/08/31 00:05:31;;;;;;;;;;;21.60;65.50;;;;;;5093555;28;19930;-55
2023/08/31 00:07:57;;;;;;;;;;;21.60;65.50;;;;;;5093574;28;19915;-55
2023/08/31 00:10:23;;;;;;;;;;;21.60;65.50;;;;;;5093489;28;19915;-55
2023/08/31 00:12:49;;;;;;;;;;;21.60;65.50;;;;;;5091872;28;19912;-55
2023/08/31 00:15:14;;;;;;;;;;;21.50;65.30;;;;;;5093372;28;20325;-55
2023/08/31 00:17:40;;;;;;;;;;;21.50;65.40;;;;;;5091011;28;19913;-55
2023/08/31 00:20:07;;;;;;;;;;;21.50;65.40;;;;;;5093275;28;19999;-55
2023/08/31 00:22:32;;;;;;;;;;;21.50;65.40;;;;;;5091193;28;19935;-55
2023/08/31 00:24:58;;;;;;;;;;;21.50;65.50;;;;;;5087395;28;19908;-55
2023/08/31 00:27:23;;;;;;;;;;;21.50;65.50;;;;;;5073069;28;19915;-55
2023/08/31 00:29:49;;;;;;;;;;;21.50;65.40;;;;;;5072961;28;19966;-55
2023/08/31 00:32:15;;;;;;;;;;;21.50;65.40;;;;;;5075694;28;20343;-55
2023/08/31 00:34:40;;;;;;;;;;;21.50;65.40;;;;;;5092976;28;19912;-55
2023/08/31 00:37:06;;;;;;;;;;;21.40;65.30;;;;;;5093097;28;20352;-55
2023/08/31 00:39:33;;;;;;;;;;;21.50;65.30;;;;;;5093032;28;20277;-56
2023/08/31 00:41:58;;;;;;;;;;;21.50;65.30;;;;;;5093084;28;20002;-55
2023/08/31 00:44:24;;;;;;;;;;;21.40;65.20;;;;;;5083925;28;19943;-55
2023/08/31 00:46:49;;;;;;;;;;;21.40;65.20;;;;;;5075736;28;19955;-55
2023/08/31 00:49:15;;;;;;;;;;;21.40;65.20;;;;;;5072562;28;19916;-55
2023/08/31 00:51:41;;;;;;;;;;;21.40;65.20;;;;;;5071480;28;19962;-55
2023/08/31 00:54:06;;;;;;;;;;;21.40;65.20;;;;;;5074720;28;19924;-55
2023/08/31 00:56:32;;;;;;;;;;;21.40;65.10;;;;;;5073918;28;20284;-55
2023/08/31 00:58:57;;;;;;;;;;;21.40;65.10;;;;;;5072759;28;19962;-55
2023/08/31 01:01:43;;;;;;;;;;;21.40;65.20;;;;;;5074464;28;20265;-55
2023/08/31 01:04:16;;;;;;;;;;;21.40;65.10;;;;;;5092896;28;20376;-55
2023/08/31 01:06:47;;;;;;;;;;;21.40;65.10;;;;;;5091369;28;19991;-55
2023/08/31 01:09:16;;;;;;;;;;;21.40;65.00;;;;;;5090773;28;19977;-55
2023/08/31 01:11:54;;;;;;;;;;;21.40;65.00;;;;;;5092850;28;19951;-55
2023/08/31 01:14:22;;;;;;;;;;;21.40;65.00;;;;;;5092658;28;20308;-55
2023/08/31 01:16:49;;;;;;;;;;;21.30;64.90;;;;;;5080250;28;19913;-55
2023/08/31 01:19:25;;;;;;;;;;;21.40;65.00;;;;;;5072638;28;19908;-55
2023/08/31 01:21:50;;;;;;;;;;;21.30;64.90;;;;;;5071507;28;19939;-55
2023/08/31 01:24:17;;;;;;;;;;;21.30;64.90;;;;;;5072606;28;20440;-55
2023/08/31 01:26:42;;;;;;;;;;;21.30;64.90;;;;;;5086737;28;19912;-55
2023/08/31 01:29:08;;;;;;;;;;;21.30;64.80;;;;;;5072508;28;19914;-55
2023/08/31 01:31:41;;;;;;;;;;;21.30;64.70;;;;;;5075975;28;20295;-55
2023/08/31 01:34:07;;;;;;;;;;;21.30;64.70;;;;;;5096501;28;19912;-55
2023/08/31 01:36:33;;;;;;;;;;;21.30;64.70;;;;;;5096449;28;19908;-54
2023/08/31 01:39:02;;;;;;;;;;;21.30;64.60;;;;;;5088395;28;19912;-55
2023/08/31 01:41:28;;;;;;;;;;;21.30;64.70;;;;;;5076083;28;19909;-55
2023/08/31 01:43:53;;;;;;;;;;;21.30;64.70;;;;;;5057941;28;19978;-55
2023/08/31 01:46:19;;;;;;;;;;;21.30;64.70;;;;;;5074988;28;19913;-55
2023/08/31 01:48:44;;;;;;;;;;;21.30;64.60;;;;;;5095964;28;20030;-55
2023/08/31 01:51:10;;;;;;;;;;;21.30;64.60;;;;;;5096088;28;19999;-55
2023/08/31 01:53:35;;;;;;;;;;;21.20;64.50;;;;;;5095989;28;19923;-55
2023/08/31 01:56:02;;;;;;;;;;;21.20;64.50;;;;;;5081507;28;19915;-55
2023/08/31 01:58:27;;;;;;;;;;;21.20;64.40;;;;;;5093265;28;19915;-55
2023/08/31 02:00:53;;;;;;;;;;;21.20;64.40;;;;;;5095835;28;20282;-55
2023/08/31 02:03:18;;;;;;;;;;;21.20;64.40;;;;;;5094051;28;20019;-56
2023/08/31 02:05:43;;;;;;;;;;;21.20;64.50;;;;;;5095713;28;19919;-55
2023/08/31 02:08:09;;;;;;;;;;;21.20;64.50;;;;;;5094335;28;19913;-55
2023/08/31 02:10:34;;;;;;;;;;;21.20;64.40;;;;;;5095777;28;19963;-55
2023/08/31 02:13:00;;;;;;;;;;;21.20;64.50;;;;;;5095564;28;20360;-55
2023/08/31 02:15:25;;;;;;;;;;;21.10;64.50;;;;;;5095541;28;20360;-55
2023/08/31 02:17:51;;;;;;;;;;;21.10;64.40;;;;;;5093254;28;20435;-55
2023/08/31 02:20:16;;;;;;;;;;;21.10;64.40;;;;;;5093182;28;19912;-55
2023/08/31 02:22:42;;;;;;;;;;;21.10;64.40;;;;;;5094209;28;19908;-55
2023/08/31 02:25:07;;;;;;;;;;;21.10;64.20;;;;;;5088208;28;19915;-55
2023/08/31 02:27:33;;;;;;;;;;;21.10;65.00;;;;;;5080365;28;19995;-55
2023/08/31 02:29:58;;;;;;;;;;;21.10;64.20;;;;;;5095258;28;19912;-54
2023/08/31 02:32:23;;;;;;;;;;;21.10;64.20;;;;;;5089027;28;19913;-55
2023/08/31 02:34:49;;;;;;;;;;;21.10;64.20;;;;;;5094492;28;20279;-54
2023/08/31 02:37:14;;;;;;;;;;;21.10;64.20;;;;;;5095303;28;20006;-55
2023/08/31 02:39:40;;;;;;;;;;;21.10;64.20;;;;;;5095198;28;20015;-55
2023/08/31 02:42:05;;;;;;;;;;;21.10;64.20;;;;;;5094474;28;20419;-55
2023/08/31 02:44:31;;;;;;;;;;;21.10;64.00;;;;;;5089242;28;19944;-55
2023/08/31 02:46:57;;;;;;;;;;;21.10;63.90;;;;;;5094984;28;19912;-55
2023/08/31 02:49:22;;;;;;;;;;;21.10;63.90;;;;;;5091274;28;19970;-55
2023/08/31 02:51:49;;;;;;;;;;;21.10;63.90;;;;;;5094902;28;19908;-55
2023/08/31 02:54:14;;;;;;;;;;;21.10;64.00;;;;;;5094818;28;19912;-55
2023/08/31 02:56:40;;;;;;;;;;;21.10;63.90;;;;;;5074642;28;20016;-55
2023/08/31 02:59:05;;;;;;;;;;;21.10;63.90;;;;;;5088145;28;19912;-55
2023/08/31 03:01:31;;;;;;;;;;;21.10;63.90;;;;;;5094681;28;19976;-55
2023/08/31 03:03:56;;;;;;;;;;;21.10;63.80;;;;;;5092280;28;19919;-55
2023/08/31 03:06:21;;;;;;;;;;;21.00;63.80;;;;;;5094629;28;19908;-55
2023/08/31 03:08:47;;;;;;;;;;;21.00;63.70;;;;;;5094476;28;19908;-55
2023/08/31 03:11:14;;;;;;;;;;;21.00;63.70;;;;;;5091311;28;19927;-55
2023/08/31 03:13:40;;;;;;;;;;;21.00;63.60;;;;;;5094325;28;19920;-55
2023/08/31 03:16:05;;;;;;;;;;;21.00;63.60;;;;;;5093556;28;19924;-55
2023/08/31 03:18:30;;;;;;;;;;;21.00;63.70;;;;;;5090983;28;19919;-55
2023/08/31 03:20:56;;;;;;;;;;;21.00;63.50;;;;;;5094304;28;20280;-55
2023/08/31 03:23:21;;;;;;;;;;;20.90;63.40;;;;;;5094287;28;20246;-55
2023/08/31 03:25:47;;;;;;;;;;;20.90;63.40;;;;;;5081349;28;19995;-54
2023/08/31 03:28:12;;;;;;;;;;;20.90;63.30;;;;;;5076546;28;19912;-55
2023/08/31 03:30:38;;;;;;;;;;;20.90;63.40;;;;;;5094176;28;19908;-55
2023/08/31 03:33:03;;;;;;;;;;;20.90;63.40;;;;;;5092147;28;19954;-54
2023/08/31 03:35:29;;;;;;;;;;;20.90;63.30;;;;;;5093899;28;20307;-55
2023/08/31 03:37:55;;;;;;;;;;;20.90;63.10;;;;;;5094068;28;20280;-55
2023/08/31 03:40:21;;;;;;;;;;;20.90;63.10;;;;;;5092442;28;20443;-55
2023/08/31 03:42:46;;;;;;;;;;;20.80;63.10;;;;;;5093811;28;19908;-55
2023/08/31 03:45:12;;;;;;;;;;;20.80;62.90;;;;;;5094164;28;19908;-55
2023/08/31 03:47:37;;;;;;;;;;;20.80;62.90;;;;;;5093684;28;19915;-55
2023/08/31 03:50:03;;;;;;;;;;;20.80;62.80;;;;;;5091563;28;19921;-55
2023/08/31 03:52:29;;;;;;;;;;;20.90;62.90;;;;;;5092435;28;19908;-55
2023/08/31 03:54:55;;;;;;;;;;;20.90;62.70;;;;;;5087647;28;19999;-55
2023/08/31 03:57:20;;;;;;;;;;;20.90;62.60;;;;;;5073375;28;20295;-54
2023/08/31 03:59:46;;;;;;;;;;;20.80;62.60;;;;;;5085047;28;19965;-55
2023/08/31 04:02:11;;;;;;;;;;;20.90;62.60;;;;;;5093562;28;19908;-55
2023/08/31 04:04:37;;;;;;;;;;;20.80;62.50;;;;;;5089777;28;20163;-55
2023/08/31 04:07:02;;;;;;;;;;;20.80;62.50;;;;;;5093432;28;19920;-55
2023/08/31 04:09:27;;;;;;;;;;;20.80;62.40;;;;;;5093494;28;19934;-55
2023/08/31 04:11:53;;;;;;;;;;;20.80;62.30;;;;;;5092030;28;19920;-55
2023/08/31 04:14:18;;;;;;;;;;;20.80;62.30;;;;;;5086547;28;19916;-55
2023/08/31 04:16:45;;;;;;;;;;;20.80;62.30;;;;;;5072997;28;20391;-54
2023/08/31 04:19:10;;;;;;;;;;;20.80;62.20;;;;;;5085121;28;20067;-55
2023/08/31 04:21:37;;;;;;;;;;;20.80;62.10;;;;;;5093127;28;20079;-55
2023/08/31 04:24:02;;;;;;;;;;;20.80;62.20;;;;;;5093328;28;19908;-55
2023/08/31 04:26:29;;;;;;;;;;;20.80;62.10;;;;;;5089699;28;19915;-55
2023/08/31 04:28:54;;;;;;;;;;;20.80;62.00;;;;;;5093132;28;19916;-55
2023/08/31 04:31:20;;;;;;;;;;;20.70;62.00;;;;;;5093231;28;19908;-55
2023/08/31 04:33:47;;;;;;;;;;;20.80;62.10;;;;;;5090894;28;19925;-54
2023/08/31 04:36:12;;;;;;;;;;;20.70;62.00;;;;;;5093057;28;19934;-55
2023/08/31 04:38:37;;;;;;;;;;;20.70;61.90;;;;;;5090887;28;19947;-55
2023/08/31 04:41:03;;;;;;;;;;;20.70;61.90;;;;;;5093012;28;19920;-55
2023/08/31 04:43:28;;;;;;;;;;;20.70;61.90;;;;;;5093071;28;19958;-54
2023/08/31 04:45:54;;;;;;;;;;;20.70;61.90;;;;;;5089218;28;19915;-54
2023/08/31 04:48:20;;;;;;;;;;;20.70;61.90;;;;;;5090954;28;19974;-55
2023/08/31 04:50:45;;;;;;;;;;;20.70;61.90;;;;;;5092758;28;19920;-55
2023/08/31 04:53:10;;;;;;;;;;;20.70;61.80;;;;;;5088427;28;19919;-54
2023/08/31 04:55:37;;;;;;;;;;;20.70;61.90;;;;;;5081519;28;19912;-55
2023/08/31 04:58:03;;;;;;;;;;;20.60;61.80;;;;;;5072764;28;20356;-55
2023/08/31 05:00:28;;;;;;;;;;;20.60;61.70;;;;;;5072907;28;19909;-55
2023/08/31 05:02:54;;;;;;;;;;;20.60;61.60;;;;;;5072173;28;19921;-55
2023/08/31 05:05:19;;;;;;;;;;;20.60;61.60;;;;;;5092882;28;19912;-55
2023/08/31 05:07:45;;;;;;;;;;;20.60;61.70;;;;;;5096443;28;19908;-55
2023/08/31 05:10:10;;;;;;;;;;;20.60;61.70;;;;;;5096809;28;19908;-55
2023/08/31 05:12:35;;;;;;;;;;;20.60;61.70;;;;;;5096823;28;20369;-55
2023/08/31 05:15:02;;;;;;;;;;;20.60;61.50;;;;;;5095119;28;19923;-54
2023/08/31 05:17:28;;;;;;;;;;;20.60;61.50;;;;;;5086531;28;20006;-55
2023/08/31 05:19:53;;;;;;;;;;;20.60;61.50;;;;;;5086840;28;20018;-56
2023/08/31 05:22:18;;;;;;;;;;;20.60;61.50;;;;;;5093990;28;19912;-54
2023/08/31 05:24:44;;;;;;;;;;;20.60;61.40;;;;;;5074853;28;19944;-55
2023/08/31 05:27:09;;;;;;;;;;;20.60;61.40;;;;;;5089693;28;20367;-55
2023/08/31 05:29:35;;;;;;;;;;;20.50;61.30;;;;;;5096343;28;19908;-55
2023/08/31 05:32:00;;;;;;;;;;;20.50;61.20;;;;;;5093138;28;19973;-54
2023/08/31 05:34:26;;;;;;;;;;;20.50;61.30;;;;;;5096347;28;19912;-55
2023/08/31 05:36:51;;;;;;;;;;;20.50;61.30;;;;;;5092498;28;19912;-55
2023/08/31 05:39:16;;;;;;;;;;;20.50;61.40;;;;;;5095351;28;20421;-55
2023/08/31 05:41:42;;;;;;;;;;;20.50;61.30;;;;;;5092703;28;20402;-54
2023/08/31 05:44:08;;;;;;;;;;;20.50;61.30;;;;;;5094661;28;20374;-55
2023/08/31 05:46:33;;;;;;;;;;;20.50;61.20;;;;;;5096102;28;19914;-55
2023/08/31 05:48:59;;;;;;;;;;;20.50;61.20;;;;;;5093845;28;19912;-56
2023/08/31 05:51:24;;;;;;;;;;;20.50;61.20;;;;;;5095947;28;19961;-55
2023/08/31 05:53:50;;;;;;;;;;;20.50;61.20;;;;;;5091886;28;20334;-55
2023/08/31 05:56:15;;;;;;;;;;;20.50;61.20;;;;;;5079055;28;19908;-55
2023/08/31 05:58:41;;;;;;;;;;;20.50;61.20;;;;;;5075583;28;19962;-55
2023/08/31 06:01:07;;;;;;;;;;;20.50;61.20;;;;;;5075958;28;20011;-55
2023/08/31 06:03:32;;;;;;;;;;;20.50;61.30;;;;;;5086234;28;19912;-55
2023/08/31 06:05:58;;;;;;;;;;;20.50;61.20;;;;;;5095839;28;19908;-55
2023/08/31 06:08:23;;;;;;;;;;;20.50;61.30;;;;;;5095703;28;20284;-55
2023/08/31 06:10:49;;;;;;;;;;;20.40;61.20;;;;;;5095746;28;20364;-55
2023/08/31 06:13:15;;;;;;;;;;;20.50;61.30;;;;;;5095653;28;19912;-55
2023/08/31 06:15:40;;;;;;;;;;;20.40;61.20;;;;;;5094010;28;19920;-54
2023/08/31 06:18:06;;;;;;;;;;;20.40;61.20;;;;;;5092951;28;19912;-54
2023/08/31 06:20:31;;;;;;;;;;;20.40;61.30;;;;;;5095632;28;20007;-55
2023/08/31 06:22:57;;;;;;;;;;;20.40;61.10;;;;;;5095383;28;19946;-55
2023/08/31 06:25:22;;;;;;;;;;;20.40;61.20;;;;;;5086048;28;20303;-55
2023/08/31 06:27:48;;;;;;;;;;;20.40;61.10;;;;;;5073181;28;19913;-58
2023/08/31 06:30:16;;;;;;;;;;;20.40;61.10;;;;;;5075041;28;19915;-54
2023/08/31 06:32:44;;;;;;;;;;;20.40;61.10;;;;;;5074099;28;19951;-55
2023/08/31 06:35:10;;;;;;;;;;;20.50;61.30;;;;;;5089877;28;19916;-54
2023/08/31 06:37:36;;;;;;;;;;;20.40;61.10;;;;;;5095141;28;19912;-55
2023/08/31 06:40:01;;;;;;;;;;;20.40;61.10;;;;;;5094942;28;20292;-55
2023/08/31 06:42:27;;;;;;;;;;;20.40;61.10;;;;;;5095089;28;19957;-55
2023/08/31 06:44:52;;;;;;;;;;;20.40;61.10;;;;;;5089948;28;20394;-55
2023/08/31 06:47:18;;;;;;;;;;;20.40;61.10;;;;;;5095048;28;19912;-55
2023/08/31 06:49:43;;;;;;;;;;;20.40;61.00;;;;;;5092353;28;19919;-55
2023/08/31 06:52:09;;;;;;;;;;;20.40;61.00;;;;;;5094987;28;19912;-55
2023/08/31 06:54:34;;;;;;;;;;;20.30;61.00;;;;;;5092120;28;19912;-55
2023/08/31 06:56:59;;;;;;;;;;;20.30;61.10;;;;;;5089508;28;19917;-55
2023/08/31 06:59:25;;;;;;;;;;;20.30;61.10;;;;;;5074009;28;19920;-55
2023/08/31 07:01:50;;;;;;;;;;;20.30;61.00;;;;;;5074402;28;19959;-55
2023/08/31 07:04:16;;;;;;;;;;;20.30;60.90;;;;;;5072672;28;19912;-55
2023/08/31 07:06:41;;;;;;;;;;;20.40;60.90;;;;;;5074112;28;19915;-55
2023/08/31 07:09:08;;;;;;;;;;;20.40;60.80;;;;;;5074201;28;20336;-55
2023/08/31 07:11:34;;;;;;;;;;;20.40;60.80;;;;;;5074135;28;19908;-55
2023/08/31 07:13:59;;;;;;;;;;;20.40;60.70;;;;;;5078029;28;20425;-55
2023/08/31 07:16:25;;;;;;;;;;;20.40;60.70;;;;;;5094427;28;20441;-55
2023/08/31 07:18:50;;;;;;;;;;;20.40;60.50;;;;;;5088681;28;19942;-55
2023/08/31 07:21:16;;;;;;;;;;;20.40;60.50;;;;;;5082127;28;19912;-55
2023/08/31 07:23:41;;;;;;;;;;;20.40;60.60;;;;;;5094555;28;19908;-55
2023/08/31 07:26:07;;;;;;;;;;;20.40;60.60;;;;;;5084429;28;19962;-55
2023/08/31 07:28:32;;;;;;;;;;;20.40;60.50;;;;;;5093437;28;19915;-55
2023/08/31 07:31:04;;;;;;;;;;;20.40;60.50;;;;;;5094226;28;19915;-55
2023/08/31 07:33:31;;;;;;;;;;;20.40;60.30;;;;;;5094078;28;20051;-55
2023/08/31 07:35:57;;;;;;;;;;;20.40;60.30;;;;;;5091188;28;19923;-55
2023/08/31 07:38:22;;;;;;;;;;;20.40;60.10;;;;;;5094039;28;19908;-55
2023/08/31 07:40:48;;;;;;;;;;;20.40;60.20;;;;;;5093941;28;19908;-54
2023/08/31 07:43:13;;;;;;;;;;;20.40;60.10;;;;;;5092491;28;19915;-55
2023/08/31 07:45:39;;;;;;;;;;;20.40;60.10;;;;;;5076424;28;20383;-55
2023/08/31 07:48:05;;;;;;;;;;;20.40;60.20;;;;;;5073308;28;19908;-55
2023/08/31 07:50:31;;;;;;;;;;;20.40;60.30;;;;;;5083878;28;19920;-55
2023/08/31 07:52:56;;;;;;;;;;;20.40;60.30;;;;;;5093570;28;20394;-55
2023/08/31 07:55:22;;;;;;;;;;;20.40;60.10;;;;;;5084334;28;20296;-55
2023/08/31 07:57:48;;;;;;;;;;;20.40;60.20;;;;;;5087256;28;19980;-55
2023/08/31 08:00:14;;;;;;;;;;;20.40;60.30;;;;;;5093601;28;19912;-55
2023/08/31 08:02:40;;;;;;;;;;;20.40;60.20;;;;;;5093560;28;19912;-55
2023/08/31 08:05:06;;;;;;;;;;;20.40;60.30;;;;;;5091282;28;20299;-55
2023/08/31 08:07:31;;;;;;;;;;;20.30;60.30;;;;;;5093871;28;19915;-55
2023/08/31 08:09:57;;;;;;;;;;;20.30;60.20;;;;;;5093277;28;19943;-55
2023/08/31 08:12:22;;;;;;;;;;;20.40;60.30;;;;;;5093766;28;19911;-55
2023/08/31 08:14:47;;;;;;;;;;;20.40;60.30;;;;;;5091776;28;19916;-56
2023/08/31 08:17:13;;;;;;;;;;;20.40;60.30;;;;;;5093380;28;19953;-56
2023/08/31 08:19:38;;;;;;;;;;;20.30;60.30;;;;;;5091345;28;19922;-55
2023/08/31 08:22:04;;;;;;;;;;;20.30;60.30;;;;;;5093316;28;19908;-55
2023/08/31 08:24:29;;;;;;;;;;;20.30;60.20;;;;;;5091235;28;19972;-54
2023/08/31 08:26:55;;;;;;;;;;;20.40;60.30;;;;;;5074823;28;19919;-55
2023/08/31 08:29:21;;;;;;;;;;;20.40;60.30;;;;;;5092737;28;19908;-56
2023/08/31 08:31:48;;;;;;;;;;;20.40;60.30;;;;;;5093164;28;19968;-55
2023/08/31 08:34:14;;;;;;;;;;;20.40;60.30;;;;;;5093104;28;19912;-56
2023/08/31 08:36:39;;;;;;;;;;;20.30;60.20;;;;;;5086245;28;19924;-55
2023/08/31 08:39:05;;;;;;;;;;;20.40;60.10;;;;;;5091377;28;19912;-56
2023/08/31 08:41:30;;;;;;;;;;;20.40;60.10;;;;;;5092936;28;20045;-55
2023/08/31 08:43:56;;;;;;;;;;;20.40;60.10;;;;;;5091856;28;19914;-55
2023/08/31 08:46:22;;;;;;;;;;;20.40;60.20;;;;;;5093071;28;19908;-55
2023/08/31 08:48:49;;;;;;;;;;;20.40;60.10;;;;;;5090146;28;19970;-55
2023/08/31 08:51:17;;;;;;;;;;;20.40;60.10;;;;;;5090449;28;19916;-56
2023/08/31 08:53:43;;;;;;;;;;;20.40;60.10;;;;;;5092596;28;19953;-55
2023/08/31 08:56:08;;;;;;;;;;;20.40;60.00;;;;;;5077085;28;19908;-55
2023/08/31 08:58:35;;;;;;;;;;;20.40;60.10;;;;;;5077950;28;19974;-55
2023/08/31 09:01:00;;;;;;;;;;;20.40;60.20;;;;;;5091641;28;19923;-55
2023/08/31 09:03:27;;;;;;;;;;;20.40;60.20;;;;;;5092717;28;19909;-56
2023/08/31 09:05:53;;;;;;;;;;;20.40;60.20;;;;;;5090270;28;19927;-56
2023/08/31 09:08:25;;;;;;;;;;;20.40;60.20;;;;;;5092688;28;19908;-55
2023/08/31 09:10:50;;;;;;;;;;;20.40;60.30;;;;;;5092779;28;19966;-55
2023/08/31 09:13:16;;;;;;;;;;;20.40;60.30;;;;;;5091225;28;19915;-55
2023/08/31 09:15:48;;;;;;;;;;;20.40;60.30;;;;;;5091240;28;20024;-55
2023/08/31 09:18:31;;;;;;;;;;;20.40;60.30;;;;;;5093151;28;19908;-55
2023/08/31 09:20:57;;;;;;;;;;;20.40;60.30;;;;;;5090242;28;19964;-55
2023/08/31 09:23:22;;;;;;;;;;;20.40;60.40;;;;;;5092740;28;20006;-55
2023/08/31 09:25:48;;;;;;;;;;;20.40;60.60;;;;;;5079755;28;20421;-56
2023/08/31 09:28:14;;;;;;;;;;;20.40;60.50;;;;;;5077042;28;20391;-55
2023/08/31 09:30:40;;;;;;;;;;;20.40;60.60;;;;;;5092706;28;19923;-55
2023/08/31 09:33:09;;;;;;;;;;;20.30;60.60;;;;;;5092543;28;19908;-55
2023/08/31 09:35:39;;;;;;;;;;;20.30;60.70;;;;;;5089458;28;19916;-54
2023/08/31 09:38:07;;;;;;;;;;;20.30;60.60;;;;;;5092362;28;20356;-56
2023/08/31 09:40:32;;;;;;;;;;;20.30;60.70;;;;;;5092420;28;20022;-55
2023/08/31 09:42:58;;;;;;;;;;;20.30;60.50;;;;;;5092073;28;20030;-56
2023/08/31 09:45:30;;;;;;;;;;;20.30;60.50;;;;;;5090913;28;19912;-55
2023/08/31 09:47:56;;;;;;;;;;;20.30;60.60;;;;;;5092276;28;19962;-55
2023/08/31 09:50:21;;;;;;;;;;;20.30;60.60;;;;;;5088812;28;19924;-55
2023/08/31 09:52:47;;;;;;;;;;;20.30;60.60;;;;;;5092981;28;19931;-55
2023/08/31 09:55:13;;;;;;;;;;;20.30;60.70;;;;;;5091951;28;19916;-55
2023/08/31 09:57:38;;;;;;;;;;;20.30;60.80;;;;;;5092759;28;19912;-56
2023/08/31 10:00:04;;;;;;;;;;;20.30;61.00;;;;;;5095842;28;19908;-56
2023/08/31 10:02:29;;;;;;;;;;;20.30;60.90;;;;;;5095841;28;20329;-55
2023/08/31 10:04:56;;;;;;;;;;;20.30;60.80;;;;;;5094243;28;20325;-55
2023/08/31 10:07:21;;;;;;;;;;;20.40;60.90;;;;;;5093559;28;19931;-55
2023/08/31 10:09:47;;;;;;;;;;;20.40;60.80;;;;;;5094300;28;19912;-55
2023/08/31 10:12:12;;;;;;;;;;;20.40;60.70;;;;;;5093563;28;19919;-55
2023/08/31 10:14:38;;;;;;;;;;;20.40;60.70;;;;;;5095640;28;19923;-56
2023/08/31 10:17:03;;;;;;;;;;;20.40;60.60;;;;;;5093200;28;19955;-55
2023/08/31 10:19:29;;;;;;;;;;;20.40;60.50;;;;;;5093972;28;19912;-55
2023/08/31 10:21:56;;;;;;;;;;;20.40;60.40;;;;;;5094417;28;19912;-56
2023/08/31 10:24:41;;;;;;;;;;;20.40;60.10;;;;;;5094694;28;20280;-55
2023/08/31 10:27:19;;;;;;;;;;;20.40;59.90;;;;;;5075182;28;19916;-55
2023/08/31 10:29:45;;;;;;;;;;;20.40;59.70;;;;;;5074610;28;20391;-55
2023/08/31 10:32:10;;;;;;;;;;;20.40;59.60;;;;;;5075222;28;19913;-55
2023/08/31 10:34:37;;;;;;;;;;;20.50;59.60;;;;;;5073692;28;19920;-55
2023/08/31 10:37:03;;;;;;;;;;;20.50;59.60;;;;;;5092832;28;19920;-55
2023/08/31 10:39:36;;;;;;;;;;;20.50;59.50;;;;;;5077093;28;19908;-55
2023/08/31 10:42:03;;;;;;;;;;;20.50;59.50;;;;;;5089463;28;19935;-56
2023/08/31 10:44:30;;;;;;;;;;;20.60;59.60;;;;;;5091112;28;19912;-55
2023/08/31 10:46:56;;;;;;;;;;;20.60;59.60;;;;;;5095067;28;19927;-55
2023/08/31 10:49:21;;;;;;;;;;;20.60;59.50;;;;;;5093742;28;20322;-55
2023/08/31 10:51:54;;;;;;;;;;;20.60;59.50;;;;;;5092810;28;19927;-55
2023/08/31 10:54:26;;;;;;;;;;;20.60;59.50;;;;;;5094462;28;19918;-55
2023/08/31 10:56:52;;;;;;;;;;;20.60;59.40;;;;;;5054619;28;19919;-55
2023/08/31 10:59:17;;;;;;;;;;;20.60;59.40;;;;;;5054618;28;19995;-56
2023/08/31 11:01:55;;;;;;;;;;;20.60;59.30;;;;;;5081160;28;19919;-55
2023/08/31 11:04:24;;;;;;;;;;;20.70;59.40;;;;;;5092510;28;20002;-55
2023/08/31 11:07:09;;;;;;;;;;;20.80;59.20;;;;;;5092196;28;20401;-55
2023/08/31 11:09:36;;;;;;;;;;;20.80;59.40;;;;;;5093059;28;20272;-55
2023/08/31 11:12:02;;;;;;;;;;;20.80;59.30;;;;;;5092941;28;20227;-55
2023/08/31 11:14:27;;;;;;;;;;;20.80;59.30;;;;;;5094064;28;19965;-55
2023/08/31 11:16:53;;;;;;;;;;;20.80;59.40;;;;;;5094283;28;20006;-55
2023/08/31 11:19:18;;;;;;;;;;;20.80;59.10;;;;;;5094151;28;19909;-55
2023/08/31 11:21:43;;;;;;;;;;;20.80;59.20;;;;;;5081346;28;19996;-56
2023/08/31 11:24:09;;;;;;;;;;;20.80;59.20;;;;;;5087222;28;19935;-55
2023/08/31 11:26:34;;;;;;;;;;;20.80;59.20;;;;;;5073395;28;19962;-55
2023/08/31 11:29:00;;;;;;;;;;;20.90;59.20;;;;;;5073088;28;20297;-54
2023/08/31 11:31:25;;;;;;;;;;;20.80;59.00;;;;;;5073779;28;20353;-56
2023/08/31 11:33:51;;;;;;;;;;;20.80;59.00;;;;;;5073566;28;19977;-55
2023/08/31 11:36:19;;;;;;;;;;;20.90;58.90;;;;;;5077505;28;19919;-56
2023/08/31 11:38:45;;;;;;;;;;;20.90;58.60;;;;;;5093880;28;19909;-56
2023/08/31 11:41:11;;;;;;;;;;;21.00;58.70;;;;;;5093787;28;19912;-56
2023/08/31 11:43:37;;;;;;;;;;;21.00;58.50;;;;;;5093775;28;19932;-56
2023/08/31 11:46:03;;;;;;;;;;;21.00;58.50;;;;;;5091121;28;20373;-54
2023/08/31 11:48:28;;;;;;;;;;;21.00;58.50;;;;;;5091950;28;19955;-55
2023/08/31 11:50:54;;;;;;;;;;;21.00;58.30;;;;;;5091473;28;19920;-56
2023/08/31 11:53:19;;;;;;;;;;;21.00;58.50;;;;;;5092692;28;19928;-56
2023/08/31 11:55:51;;;;;;;;;;;20.90;58.30;;;;;;5080963;28;19917;-55
2023/08/31 11:58:17;;;;;;;;;;;20.90;58.10;;;;;;5071228;28;19963;-55
2023/08/31 12:00:43;;;;;;;;;;;20.90;58.30;;;;;;5073633;28;19952;-56
2023/08/31 12:03:08;;;;;;;;;;;20.90;58.10;;;;;;5073354;28;19908;-56
2023/08/31 12:05:46;;;;;;;;;;;20.90;58.00;;;;;;5073184;28;19915;-56
2023/08/31 12:08:12;;;;;;;;;;;20.90;58.00;;;;;;5089761;28;19908;-56
2023/08/31 12:10:44;;;;;;;;;;;20.90;58.10;;;;;;5092089;28;19984;-56
2023/08/31 12:13:09;;;;;;;;;;;20.90;57.90;;;;;;5093398;28;20023;-56
2023/08/31 12:15:35;;;;;;;;;;;20.90;57.80;;;;;;5092974;28;19994;-56
2023/08/31 12:18:10;;;;;;;;;;;20.90;57.60;;;;;;5091866;28;19956;-56
2023/08/31 12:20:42;;;;;;;;;;;20.90;57.60;;;;;;5093513;28;20407;-55
2023/08/31 12:23:09;;;;;;;;;;;20.90;57.60;;;;;;5091024;28;19908;-55
2023/08/31 12:25:35;;;;;;;;;;;20.90;57.50;;;;;;5081973;28;20374;-55
2023/08/31 12:28:01;;;;;;;;;;;20.90;57.70;;;;;;5072447;28;19988;-55
2023/08/31 12:30:26;;;;;;;;;;;20.90;57.50;;;;;;5093125;28;19913;-55
2023/08/31 12:32:52;;;;;;;;;;;20.90;57.30;;;;;;5093163;28;20261;-56
2023/08/31 12:35:17;;;;;;;;;;;20.90;57.10;;;;;;5093124;28;20405;-56
2023/08/31 12:37:43;;;;;;;;;;;20.90;57.10;;;;;;5087965;28;20044;-55
2023/08/31 12:40:09;;;;;;;;;;;21.00;57.00;;;;;;5093113;28;19944;-56
2023/08/31 12:42:35;;;;;;;;;;;21.00;56.70;;;;;;5093090;28;19930;-56
2023/08/31 12:45:01;;;;;;;;;;;20.90;56.40;;;;;;5092977;28;19998;-56
2023/08/31 12:47:26;;;;;;;;;;;20.90;56.60;;;;;;5091474;28;19998;-55
2023/08/31 12:49:52;;;;;;;;;;;20.90;56.60;;;;;;5091695;28;20025;-55
2023/08/31 12:52:17;;;;;;;;;;;20.90;56.90;;;;;;5090423;28;19912;-55
2023/08/31 12:54:43;;;;;;;;;;;20.80;57.30;;;;;;5086297;28;19946;-56
2023/08/31 12:57:09;;;;;;;;;;;20.80;57.80;;;;;;5080760;28;20347;-56
2023/08/31 12:59:34;;;;;;;;;;;20.80;58.00;;;;;;5093002;28;19978;-55
2023/08/31 13:01:59;;;;;;;;;;;20.80;58.00;;;;;;5092935;28;19908;-56
2023/08/31 13:04:25;;;;;;;;;;;20.80;58.00;;;;;;5091443;28;19909;-55
2023/08/31 13:06:50;;;;;;;;;;;20.80;58.00;;;;;;5090365;28;20011;-55
2023/08/31 13:09:16;;;;;;;;;;;20.90;58.10;;;;;;5092838;28;19908;-56
2023/08/31 13:11:41;;;;;;;;;;;20.90;58.10;;;;;;5092575;28;19950;-55
2023/08/31 13:14:07;;;;;;;;;;;20.90;58.00;;;;;;5092582;28;19919;-56
2023/08/31 13:16:36;;;;;;;;;;;20.90;58.20;;;;;;5092758;28;20066;-57
2023/08/31 13:19:02;;;;;;;;;;;20.90;58.10;;;;;;5082685;28;19913;-55
2023/08/31 13:21:28;;;;;;;;;;;21.00;58.30;;;;;;5072301;28;20022;-55
2023/08/31 13:23:53;;;;;;;;;;;21.00;58.50;;;;;;5090655;28;19912;-55
2023/08/31 13:26:19;;;;;;;;;;;21.00;58.90;;;;;;5057224;28;19913;-55
2023/08/31 13:28:44;;;;;;;;;;;21.10;58.50;;;;;;5077871;28;19916;-55
2023/08/31 13:31:11;;;;;;;;;;;21.10;58.50;;;;;;5096427;28;20075;-56
2023/08/31 13:33:37;;;;;;;;;;;21.10;58.50;;;;;;5096426;28;19915;-55
2023/08/31 13:36:03;;;;;;;;;;;21.10;58.60;;;;;;5094719;28;20291;-58
2023/08/31 13:38:29;;;;;;;;;;;21.10;58.60;;;;;;5095829;28;19908;-55
2023/08/31 13:40:56;;;;;;;;;;;21.10;58.50;;;;;;5094960;28;20350;-56
2023/08/31 13:43:22;;;;;;;;;;;21.10;58.50;;;;;;5096555;28;20630;-56
2023/08/31 13:45:48;;;;;;;;;;;21.20;58.60;;;;;;5096249;28;20418;-55
2023/08/31 13:48:13;;;;;;;;;;;21.20;58.50;;;;;;5094724;28;19912;-56
2023/08/31 13:50:39;;;;;;;;;;;21.20;58.40;;;;;;5084276;28;19920;-55
2023/08/31 13:53:04;;;;;;;;;;;21.20;58.50;;;;;;5089114;28;20035;-55
2023/08/31 13:55:32;;;;;;;;;;;21.20;58.50;;;;;;5084887;28;19920;-55
2023/08/31 13:58:02;;;;;;;;;;;21.20;58.60;;;;;;5082232;28;19916;-55
2023/08/31 14:00:28;;;;;;;;;;;21.20;58.10;;;;;;5092457;28;19933;-56
2023/08/31 14:02:54;;;;;;;;;;;21.20;58.10;;;;;;5094640;28;19998;-55
2023/08/31 14:05:19;;;;;;;;;;;21.20;58.20;;;;;;5093994;28;19909;-55
2023/08/31 14:07:45;;;;;;;;;;;21.20;58.50;;;;;;5095795;28;19908;-56
2023/08/31 14:10:11;;;;;;;;;;;21.10;58.10;;;;;;5086975;28;19916;-56